VOBG/BLR METAR and TAF weather

Enter ICAO airport designator
Station Type Date Time Source
VOBG METAR 2019/04/18 18:00 UTC NOAA

VOBG 181800Z 09010KT 6000 TSRA SCT012 FEW025CB 22/21 Q1015


Station Type Date Time Source
VOBG Decoded METAR 2019/04/18 18:00 UTC NOAA

Bangalore / Hindustan, India (VOBG) 12-57N 077-40E
Apr 18, 2019 - 02:00 PM EDT / 2019.04.18 1800 UTC
Wind: from the E (090 degrees) at 12 MPH (10 KT):0
Visibility: 3 mile(s):0
Sky conditions: partly cloudy
Weather: rain with thunder; Cumulonimbus clouds observed
Temperature: 71 F (22 C)
Dew Point: 69 F (21 C)
Relative Humidity: 94%
Pressure (altimeter): 29.97 in. Hg (1015 hPa)
ob: VOBG 181800Z 09010KT 6000 TSRA SCT012 FEW025CB 22/21 Q1015
cycle: 18

Station Type Date Time Source
VOBG TAF 2018/07/15 00:00 UTC NOAA

VOBG 142300Z 1500/1509 27010KT 6000 SCT010 BKN080
TEMPO 1500/1503 5000 BR SCT008 BKN080

Example: see airport list